Terminal Aerodrome Forecast
Issued by NWS

Current Version | Previous Version | Graphics & Text | Print | Product List | Glossary On
Versions: 1 2 3 4 5 6 7 8 9 10 11 12 13 14 15 16 17 18
855
FTUS41 KILN 161739
TAFLCK
TAF
KLCK 161739Z 1618/1718 28018G26KT 5SM -SHSN SCT015 OVC025
      TEMPO 1618/1622 1SM -SHSN BKN015
     FM162200 27018G26KT P6SM VCSH BKN025 OVC035
     FM170200 25015KT 3SM -SHSN BKN015 OVC025
     FM170500 25014KT P6SM OVC015
     FM171300 26016G24KT P6SM SCT020 OVC035=

USA.gov is the U.S. government's official web portal to all federal, state and local government web resources and services.